Time;durP1;ratioP1;P1;durP2;ratioP2;P2;SDS_P1;SDS_P2;PMS_P1;PMS_P2;Temp;Humidity;BMP_temperature;BMP_pressure;BME280_temperature;BME280_humidity;BME280_pressure;Samples;Min_cycle;Max_cycle;Signal;HPM_P1;HPM_P2
2023/09/11 00:09:07;;;;;;;15.25;8.77;;;;;;;-147.20;100.00;63046.97;31543811;28;20031;-66
2023/09/11 00:24:07;;;;;;;11.68;8.50;;;;;;;-147.20;100.00;63046.97;31543556;28;20017;-72
2023/09/11 00:39:07;;;;;;;17.95;9.05;;;;;;;-147.20;100.00;63046.97;31541417;28;20029;-73
2023/09/11 00:54:09;;;;;;;13.85;10.02;;;;;;;-147.20;100.00;63046.97;31539842;28;20044;-68
2023/09/11 01:09:09;;;;;;;14.52;9.68;;;;;;;-147.20;100.00;63046.97;31538935;28;20041;-63
2023/09/11 01:24:28;;;;;;;10.38;8.23;;;;;;;-147.20;100.00;63046.97;31536359;28;20501;-66
2023/09/11 01:39:29;;;;;;;13.00;9.07;;;;;;;-147.20;100.00;63046.97;31536722;28;20115;-65
2023/09/11 01:54:29;;;;;;;9.85;8.55;;;;;;;-147.20;100.00;63046.97;31535271;28;20117;-68
2023/09/11 02:09:30;;;;;;;14.50;8.63;;;;;;;-147.20;100.00;63046.97;31535255;28;20039;-70
2023/09/11 02:24:30;;;;;;;11.30;8.98;;;;;;;-147.20;100.00;63046.97;31532422;28;23658;-73
2023/09/11 02:39:30;;;;;;;13.88;9.27;;;;;;;-147.20;100.00;63046.97;31549393;28;20454;-67
2023/09/11 02:54:31;;;;;;;11.88;8.18;;;;;;;-147.20;100.00;63046.97;31550368;28;20053;-66
2023/09/11 03:09:31;;;;;;;21.85;9.45;;;;;;;-147.20;100.00;63046.97;31546953;28;23060;-62
2023/09/11 03:24:31;;;;;;;13.10;8.60;;;;;;;-147.20;100.00;63046.97;31545599;28;20296;-67
2023/09/11 03:39:32;;;;;;;17.10;9.13;;;;;;;-147.20;100.00;63046.97;31545211;28;20041;-72
2023/09/11 03:54:32;;;;;;;19.77;8.88;;;;;;;-147.20;100.00;63046.97;31544434;28;20053;-72
2023/09/11 04:09:32;;;;;;;19.38;8.63;;;;;;;-147.20;100.00;63046.97;31542166;28;20116;-62
2023/09/11 04:24:33;;;;;;;15.13;8.18;;;;;;;-147.20;100.00;63046.97;31540336;28;20109;-64
2023/09/11 04:39:33;;;;;;;21.35;8.88;;;;;;;-147.20;100.00;63046.97;31539521;28;20037;-68
2023/09/11 04:54:33;;;;;;;13.82;8.18;;;;;;;-147.20;100.00;63046.97;31535662;28;20053;-63
2023/09/11 05:09:34;;;;;;;37.47;13.20;;;;;;;-147.20;100.00;63046.97;31536023;28;20041;-70
2023/09/11 05:24:34;;;;;;;24.45;11.23;;;;;;;-147.20;100.00;63046.97;31532753;28;20040;-68
2023/09/11 05:39:34;;;;;;;18.75;10.70;;;;;;;-147.20;100.00;63046.97;31530832;28;20044;-69
2023/09/11 05:54:35;;;;;;;12.32;8.77;;;;;;;-147.20;100.00;63046.97;31528316;28;23091;-74
2023/09/11 06:09:35;;;;;;;15.75;8.50;;;;;;;-147.20;100.00;63046.97;31542161;28;20037;-67
2023/09/11 06:24:35;;;;;;;14.35;9.02;;;;;;;-147.20;100.00;63046.97;31551619;28;22663;-73
2023/09/11 06:39:36;;;;;;;13.18;8.45;;;;;;;-147.20;100.00;63046.97;31551506;28;20445;-64
2023/09/11 06:54:36;;;;;;;10.43;8.03;;;;;;;-147.20;100.00;63046.97;31548588;28;20129;-70
2023/09/11 07:09:36;;;;;;;15.03;7.97;;;;;;;-147.20;100.00;63046.97;31547717;28;20029;-71
2023/09/11 07:24:38;;;;;;;;;;;;;;;-147.20;100.00;63046.97;31544955;28;20029;-73
2023/09/11 07:39:39;;;;;;;15.63;8.05;;;;;;;-147.20;100.00;63046.97;31544953;28;19917;-63
2023/09/11 07:54:39;;;;;;;13.70;7.85;;;;;;;-147.20;100.00;63046.97;31538825;28;20397;-68
2023/09/11 08:09:39;;;;;;;12.77;7.13;;;;;;;-147.20;100.00;63046.97;31538322;28;20025;-74
2023/09/11 08:24:40;;;;;;;12.10;7.28;;;;;;;-147.20;100.00;63046.97;31536880;28;20037;-65
2023/09/11 08:39:40;;;;;;;10.02;6.40;;;;;;;-147.20;100.00;63046.97;31536400;28;20055;-66
2023/09/11 08:54:48;;;;;;;7.25;5.80;;;;;;;-147.20;100.00;63046.97;31535920;28;20048;-63
2023/09/11 09:09:48;;;;;;;6.97;4.67;;;;;;;-147.20;100.00;63046.97;31536553;28;20036;-67
2023/09/11 09:24:52;;;;;;;9.85;5.10;;;;;;;-147.20;100.00;63046.97;31536393;28;20483;-70
2023/09/11 09:39:52;;;;;;;5.97;3.93;;;;;;;-147.20;100.00;63046.97;31538720;28;20040;-72
2023/09/11 09:54:58;;;;;;;6.38;3.83;;;;;;;-147.20;100.00;63046.97;31552104;28;20053;-66
2023/09/11 10:10:19;;;;;;;4.93;3.17;;;;;;;-147.20;100.00;63046.97;31551206;28;20049;-63
2023/09/11 10:25:23;;;;;;;4.63;3.47;;;;;;;-147.20;100.00;63046.97;31550719;28;20033;-73
2023/09/11 10:40:29;;;;;;;7.40;3.10;;;;;;;-147.20;100.00;63046.97;31549514;28;20037;-66
2023/09/11 10:55:30;;;;;;;5.87;2.50;;;;;;;-147.20;100.00;63046.97;31550247;28;20053;-67
2023/09/11 11:10:31;;;;;;;3.92;2.63;;;;;;;-147.20;100.00;63046.97;31547431;28;20044;-66
2023/09/11 11:25:32;;;;;;;4.83;3.00;;;;;;;-147.20;100.00;63046.97;31546010;28;20116;-69
2023/09/11 11:40:35;;;;;;;4.68;3.00;;;;;;;-147.20;100.00;63046.97;31543255;28;20163;-71
2023/09/11 11:55:35;;;;;;;3.43;2.87;;;;;;;-147.20;100.00;63046.97;31539772;28;20053;-65
2023/09/11 12:10:36;;;;;;;7.22;3.75;;;;;;;-147.20;100.00;63046.97;31539527;28;20033;-66
2023/09/11 12:25:37;;;;;;;6.17;4.10;;;;;;;-147.20;100.00;63046.97;31538101;28;20106;-68
2023/09/11 12:40:39;;;;;;;9.30;3.95;;;;;;;-147.20;100.00;63046.97;31536575;28;20112;-67
2023/09/11 12:55:39;;;;;;;6.80;4.03;;;;;;;-147.20;100.00;63046.97;31536299;28;20856;-63
2023/09/11 13:10:40;;;;;;;5.95;4.55;;;;;;;-147.20;100.00;63046.97;31536933;28;20033;-66
2023/09/11 13:25:40;;;;;;;;;;;;;;;-147.20;100.00;63046.97;31535553;28;20048;-72
2023/09/11 13:40:40;;;;;;;6.95;5.30;;;;;;;-147.20;100.00;63046.97;31534034;28;20007;-66
2023/09/11 13:55:41;;;;;;;9.95;5.07;;;;;;;-147.20;100.00;63046.97;31532013;28;20045;-67
2023/09/11 14:10:42;;;;;;;5.17;4.67;;;;;;;-147.20;100.00;63046.97;31531272;28;20082;-72
2023/09/11 14:25:44;;;;;;;8.93;4.97;;;;;;;-147.20;100.00;63046.97;31533168;28;20036;-75
2023/09/11 14:40:45;;;;;;;6.57;4.70;;;;;;;-147.20;100.00;63046.97;31549927;28;20033;-64
2023/09/11 14:55:46;;;;;;;8.30;4.90;;;;;;;-147.20;100.00;63046.97;31547409;28;20624;-67
2023/09/11 15:10:47;;;;;;;6.27;5.50;;;;;;;-147.20;100.00;63046.97;31547397;28;20334;-69
2023/09/11 15:25:47;;;;;;;7.88;5.13;;;;;;;-147.20;100.00;63046.97;31545879;28;20248;-73
2023/09/11 15:40:48;;;;;;;8.30;5.38;;;;;;;-147.20;100.00;63046.97;31543267;28;20083;-67
2023/09/11 15:55:49;;;;;;;11.00;5.38;;;;;;;-147.20;100.00;63046.97;31543114;28;25720;-63
2023/09/11 16:10:49;;;;;;;7.93;5.50;;;;;;;-147.20;100.00;63046.97;31541346;28;20025;-66
2023/09/11 16:25:51;;;;;;;7.78;5.82;;;;;;;-147.20;100.00;63046.97;31539843;28;20283;-73
2023/09/11 16:40:51;;;;;;;8.13;5.43;;;;;;;-147.20;100.00;63046.97;31538385;28;20037;-70
2023/09/11 16:55:52;;;;;;;15.77;7.55;;;;;;;-147.20;100.00;63046.97;31534060;28;20085;-63
2023/09/11 17:10:53;;;;;;;30.38;9.93;;;;;;;-147.20;100.00;63046.97;31535286;28;20190;-73
2023/09/11 17:25:53;;;;;;;25.45;10.30;;;;;;;-147.20;100.00;63046.97;31533404;28;20119;-71
2023/09/11 17:40:53;;;;;;;19.85;11.23;;;;;;;-147.20;100.00;63046.97;31531654;28;20478;-67
2023/09/11 17:55:54;;;;;;;16.58;8.57;;;;;;;-147.20;100.00;63046.97;31531790;28;20130;-64
2023/09/11 18:10:54;;;;;;;20.38;11.65;;;;;;;-147.20;100.00;63046.97;31550447;28;20044;-68
2023/09/11 18:25:54;;;;;;;22.63;12.10;;;;;;;-147.20;100.00;63046.97;31551936;28;20041;-67
2023/09/11 18:40:54;;;;;;;;;;;;;;;-147.20;100.00;63046.97;31548853;28;20036;-69
2023/09/11 18:55:55;;;;;;;22.80;12.80;;;;;;;-147.20;100.00;63046.97;31547447;28;20399;-65
2023/09/11 19:10:55;;;;;;;22.27;13.15;;;;;;;-147.20;100.00;63046.97;31548172;28;20060;-67
2023/09/11 19:25:55;;;;;;;29.33;15.30;;;;;;;-147.20;100.00;63046.97;31546866;28;20041;-70
2023/09/11 19:40:56;;;;;;;22.40;13.73;;;;;;;-147.20;100.00;63046.97;31545656;28;20048;-71
2023/09/11 19:55:56;;;;;;;17.30;11.73;;;;;;;-147.20;100.00;63046.97;31544809;28;20072;-63
2023/09/11 20:10:57;;;;;;;16.47;11.37;;;;;;;-147.20;100.00;63046.97;31543832;28;20039;-67
2023/09/11 20:26:00;;;;;;;25.60;12.83;;;;;;;-147.20;100.00;63046.97;31541684;28;20117;-64
2023/09/11 20:41:00;;;;;;;20.15;12.68;;;;;;;-147.20;100.00;63046.97;31539488;28;20271;-69
2023/09/11 20:56:03;;;;;;;23.38;14.88;;;;;;;-147.20;100.00;63046.97;31538717;28;20104;-70
2023/09/11 21:11:03;;;;;;;25.70;15.23;;;;;;;-147.20;100.00;63046.97;31537382;28;20064;-64
2023/09/11 21:26:05;;;;;;;29.60;16.48;;;;;;;-147.20;100.00;63046.97;31537410;28;20040;-67
2023/09/11 21:41:06;;;;;;;30.60;17.02;;;;;;;-147.20;100.00;63046.97;31535273;28;20112;-73
2023/09/11 21:56:06;;;;;;;39.28;17.40;;;;;;;-147.20;100.00;63046.97;31535114;28;20059;-72
2023/09/11 22:11:06;;;;;;;21.35;11.02;;;;;;;-147.20;100.00;63046.97;31534207;28;20871;-65
2023/09/11 22:26:07;;;;;;;14.32;10.23;;;;;;;-147.20;100.00;63046.97;31533607;28;20072;-68
2023/09/11 22:41:07;;;;;;;20.25;12.48;;;;;;;-147.20;100.00;63046.97;31532626;28;20025;-67
2023/09/11 22:56:07;;;;;;;19.55;12.32;;;;;;;-147.20;100.00;63046.97;31547783;28;20055;-71
2023/09/11 23:11:08;;;;;;;13.32;10.00;;;;;;;-147.20;100.00;63046.97;31551858;28;20469;-74
2023/09/11 23:26:08;;;;;;;11.60;10.02;;;;;;;-147.20;100.00;63046.97;31549640;28;20371;-66
2023/09/11 23:41:09;;;;;;;11.00;9.52;;;;;;;-147.20;100.00;63046.97;31548426;28;20071;-69
2023/09/11 23:56:09;;;;;;;16.40;11.23;;;;;;;-147.20;100.00;63046.97;31544804;28;20128;-70
